Voca, Texas
Current Conditions -  °F | °C
As of 10:35 AM on Wednesday 22 Oct 2014 (Local Time) from KBBD Reporting Station
Few Clouds Few Clouds  
Wind Chill: 72°   Ceiling: Unl
Heat Index: 72°   Visibility: 10mi
Dew Point: 52°   Wind: 13mph
Humidity: 50%   Direction: 140°SE
Pressure: 30.14"   Gusts: NA
Location:  31.01°N, 99.19°W
Report Text: KBBD 221535Z AUTO 14011KT 10SM FEW085 22/11 A3014 RMK
Loading
Personal Weather Stations






























Interactive Weather Map
Tropical Storm Tracking
New forecast layout! Learn more

10-Day Weather Forecast

Advertisements
Track Severe Weather on mobile